This demonstration page uses our WeatherBlox Daily Observations layout. Learn more.

Hourly Observations for August 2, 2017

Temp ( °F °C ) Dew Point ( °F °C ) Humidity (%) Winds ( mph kmh ) Pressure ( in mb ) Visibility ( mi km ) Precip ( " mm )
12:54 am 00:54 Clear 70 21.1 62 16.7 76 76 N 8 13 30.11 1020 10 16.0934 0 0
1:54 am 01:54 Mostly Clear 70 21.1 62 16.7 76 76 NW 8 13 30.1 1019 10 16.0934 0 0
2:54 am 02:54 Clear 70 21.1 61 16.1 73 73 NNW 7 11 30.08 1019 10 16.0934 0 0
3:54 am 03:54 Clear 69 20.6 61 16.1 76 76 NW 6 9 30.09 1019 10 16.0934 0 0
4:54 am 04:54 Clear 69 20.6 60 15.6 73 73 VRB 3 6 30.08 1019 10 16.0934 0 0
5:54 am 05:54 Clear 67 19.4 60 15.6 79 79 Calm 30.09 1019 10 16.0934 0 0
6:54 am 06:54 Sunny 65 18.3 60 15.6 84 84 Calm 30.09 1019 10 16.0934 0 0
7:54 am 07:54 Sunny 68 20 60 15.6 76 76 Calm 30.1 1019 10 16.0934 0 0
8:54 am 08:54 Sunny 71 21.7 62 16.7 73 73 N 3 6 30.11 1020 10 16.0934 0 0
9:54 am 09:54 Sunny 74 23.3 64 17.8 71 71 Calm 30.1 1019 10 16.0934 0 0
10:54 am 10:54 Sunny 78 25.6 66 18.9 67 67 N 6 9 30.11 1020 10 16.0934 0 0
11:54 am 11:54 Sunny 81 27.2 68 20 65 65 N 8 13 30.1 1019 10 16.0934 0 0
12:54 pm 12:54 Sunny 83 28.3 68 20 61 61 N 6 9 30.08 1019 10 16.0934 0 0
1:54 pm 13:54 Sunny 85 29.4 65 18.3 51 51 N 6 9 30.05 1018 10 16.0934 0 0
2:54 pm 14:54 Sunny 87 30.6 67 19.4 51 51 NNE 8 13 30.04 1017 10 16.0934 0 0
3:54 pm 15:54 Sunny 87 30.6 62 16.7 43 43 ENE 8 13 30.02 1017 10 16.0934 0 0
4:05 pm 16:05 Mostly Sunny 88 31.1 61 16.1 40 40 E 5 7 30 1016 10 16.0934 0 0
4:54 pm 16:54 Sunny 86 30 61 16.1 43 43 Calm 30.01 1016 10 16.0934 0 0
5:54 pm 17:54 Sunny 84 28.9 64 17.8 51 51 NNW 5 7 30.01 1016 10 16.0934 0 0
6:54 pm 18:54 Sunny 85 29.4 64 17.8 50 50 Calm 30 1016 10 16.0934 0 0
7:54 pm 19:54 Sunny 82 27.8 66 18.9 58 58 NNE 3 6 29.99 1016 10 16.0934 0 0
8:54 pm 20:54 Clear 81 27.2 67 19.4 62 62 NNW 8 13 30 1016 10 16.0934 0 0
9:54 pm 21:54 Clear 76 24.4 68 20 77 77 NNE 5 7 30.02 1017 9 14.48406 0 0
10:54 pm 22:54 Clear 77 25 69 20.6 77 77 ENE 5 7 30.02 1017 10 16.0934 0 0
11:54 pm 23:54 Mostly Cloudy 77 25 69 20.6 77 77 Calm 30.01 1016 8 12.87472 0 0

Powered by AerisWeather